Time;durP1;ratioP1;P1;durP2;ratioP2;P2;SDS_P1;SDS_P2;PMS_P1;PMS_P2;Temp;Humidity;BMP_temperature;BMP_pressure;BME280_temperature;BME280_humidity;BME280_pressure;Samples;Min_cycle;Max_cycle;Signal;HPM_P1;HPM_P2
2022/05/13 00:01:51;;;;;;;6.68;2.38;;;11.00;99.90;;;;;;5012561;28;20132;-85
2022/05/13 00:04:17;;;;;;;5.72;2.22;;;11.00;99.90;;;;;;4996552;28;20124;-85
2022/05/13 00:06:42;;;;;;;6.13;2.38;;;11.10;99.90;;;;;;5011637;28;20041;-85
2022/05/13 00:09:09;;;;;;;6.30;2.40;;;11.10;99.90;;;;;;5011956;28;20048;-85
2022/05/13 00:11:34;;;;;;;8.60;2.60;;;11.10;99.90;;;;;;5012007;28;20604;-86
2022/05/13 00:14:01;;;;;;;5.57;2.33;;;11.10;99.90;;;;;;5027168;28;20084;-85
2022/05/13 00:16:26;;;;;;;5.35;2.38;;;11.10;99.90;;;;;;5029358;28;20045;-85
2022/05/13 00:18:52;;;;;;;8.23;2.55;;;11.10;99.90;;;;;;4998151;28;20498;-85
2022/05/13 00:21:18;;;;;;;8.40;2.85;;;11.10;99.90;;;;;;5022597;28;20091;-85
2022/05/13 00:23:45;;;;;;;4.95;2.50;;;11.10;99.90;;;;;;5013492;28;20041;-84
2022/05/13 00:26:10;;;;;;;6.78;3.35;;;11.20;99.90;;;;;;5012900;28;20096;-84
2022/05/13 00:28:36;;;;;;;8.15;2.38;;;11.20;99.90;;;;;;5029589;28;20164;-84
2022/05/13 00:31:04;;;;;;;6.50;2.63;;;11.20;99.90;;;;;;4993689;28;20561;-84
2022/05/13 00:33:32;;;;;;;7.10;2.95;;;11.30;99.90;;;;;;4995333;28;20648;-85
2022/05/13 00:35:57;;;;;;;6.80;2.50;;;11.30;99.90;;;;;;5028989;28;20128;-84
2022/05/13 00:38:23;;;;;;;6.07;2.53;;;11.30;99.90;;;;;;5006187;28;20204;-85
2022/05/13 00:40:49;;;;;;;6.18;2.55;;;11.30;99.90;;;;;;5021793;28;20439;-85
2022/05/13 00:43:42;;;;;;;7.57;2.47;;;11.40;99.90;;;;;;4995685;28;20152;-86
2022/05/13 00:46:08;;;;;;;7.85;2.70;;;11.40;99.90;;;;;;5026160;28;20037;-85
2022/05/13 00:48:34;;;;;;;6.07;3.00;;;11.40;99.90;;;;;;5027739;28;20291;-85
2022/05/13 00:51:00;;;;;;;6.78;3.15;;;11.30;99.90;;;;;;5027110;28;20038;-85
2022/05/13 00:53:27;;;;;;;6.85;2.60;;;11.40;99.90;;;;;;5011386;28;20140;-85
2022/05/13 00:55:53;;;;;;;6.82;3.33;;;11.40;99.90;;;;;;5011317;28;20052;-85
2022/05/13 00:58:20;;;;;;;4.00;2.20;;;11.40;99.90;;;;;;5011204;28;20049;-84
2022/05/13 01:00:47;;;;;;;7.80;2.63;;;11.40;99.90;;;;;;5011937;28;20049;-83
2022/05/13 01:03:13;;;;;;;10.35;2.83;;;11.40;99.90;;;;;;5011818;28;20089;-82
2022/05/13 01:05:49;;;;;;;7.05;2.30;;;11.50;99.90;;;;;;5011535;28;20120;-83
2022/05/13 01:08:15;;;;;;;8.98;2.60;;;11.50;99.90;;;;;;5027112;28;20045;-85
2022/05/13 01:10:43;;;;;;;6.93;2.60;;;11.50;99.90;;;;;;5011254;28;20560;-82
2022/05/13 01:13:13;;;;;;;8.55;2.72;;;11.60;99.90;;;;;;5001501;28;20048;-85
2022/05/13 01:15:41;;;;;;;8.05;3.40;;;11.50;99.90;;;;;;5022096;28;20045;-83
2022/05/13 01:18:07;;;;;;;9.90;2.63;;;11.50;99.90;;;;;;5012476;28;20049;-83
2022/05/13 01:20:51;;;;;;;6.97;2.53;;;11.70;99.90;;;;;;5015827;28;20124;-83
2022/05/13 01:23:21;;;;;;;9.43;2.92;;;11.60;99.90;;;;;;4998682;28;20067;-83
2022/05/13 01:25:50;;;;;;;6.35;2.72;;;11.60;99.90;;;;;;5015160;28;20064;-83
2022/05/13 01:28:24;;;;;;;12.40;3.00;;;11.60;99.90;;;;;;5016003;28;20045;-84
2022/05/13 01:30:59;;;;;;;7.10;2.50;;;11.70;99.90;;;;;;5033388;28;20044;-82
2022/05/13 01:33:26;;;;;;;7.85;2.55;;;11.70;99.90;;;;;;5014969;28;20041;-84
2022/05/13 01:35:54;;;;;;;5.55;3.05;;;11.60;99.90;;;;;;5064210;28;20512;-83
2022/05/13 01:38:23;;;;;;;10.93;3.40;;;11.70;99.90;;;;;;5031229;28;20111;-84
2022/05/13 01:40:50;;;;;;;8.23;2.75;;;11.70;99.90;;;;;;5030797;28;20414;-84
2022/05/13 01:43:16;;;;;;;8.93;3.35;;;11.70;99.90;;;;;;5004803;28;20054;-85
2022/05/13 01:45:42;;;;;;;8.57;3.00;;;12.00;99.90;;;;;;5064801;28;20060;-83
2022/05/13 01:48:09;;;;;;;9.20;2.60;;;11.70;99.90;;;;;;4999310;28;20490;-82
2022/05/13 01:50:36;;;;;;;8.50;3.25;;;11.70;99.90;;;;;;5031222;28;20048;-82
2022/05/13 01:53:02;;;;;;;12.68;3.10;;;11.70;99.90;;;;;;5015225;28;20046;-83
2022/05/13 01:55:27;;;;;;;4.93;2.30;;;11.70;99.90;;;;;;4996474;28;20052;-82
2022/05/13 01:57:53;;;;;;;12.55;3.55;;;11.70;99.90;;;;;;5031667;28;20045;-83
2022/05/13 02:00:19;;;;;;;11.30;3.03;;;11.70;99.90;;;;;;5013498;28;20042;-83
2022/05/13 02:05:30;;;;;;;7.13;2.70;;;11.70;99.90;;;;;;5017324;28;20045;-83
2022/05/13 02:07:56;;;;;;;6.03;2.55;;;11.60;99.90;;;;;;5015804;28;20060;-84
2022/05/13 02:10:21;;;;;;;8.20;2.53;;;11.60;99.90;;;;;;5048467;28;20053;-83
2022/05/13 02:12:48;;;;;;;8.40;2.95;;;11.60;99.90;;;;;;4998852;28;20518;-85
2022/05/13 02:15:13;;;;;;;9.98;3.88;;;11.60;99.90;;;;;;5013159;28;20045;-85
2022/05/13 02:17:39;;;;;;;11.32;2.80;;;11.60;99.90;;;;;;5015565;28;20056;-83
2022/05/13 02:20:07;;;;;;;14.90;3.40;;;11.60;99.90;;;;;;4983031;28;20479;-83
2022/05/13 02:22:33;;;;;;;4.55;2.70;;;11.60;99.90;;;;;;5013898;28;20045;-84
2022/05/13 02:24:59;;;;;;;8.75;3.08;;;11.50;99.90;;;;;;5022878;28;20068;-82
2022/05/13 02:27:25;;;;;;;7.93;3.05;;;11.50;99.90;;;;;;5038453;28;20045;-83
2022/05/13 02:29:51;;;;;;;11.20;3.10;;;11.50;99.90;;;;;;5000251;28;20467;-85
2022/05/13 02:32:17;;;;;;;11.75;3.65;;;11.50;99.90;;;;;;5011299;28;20136;-87
2022/05/13 02:34:44;;;;;;;7.90;2.95;;;11.50;99.90;;;;;;5014376;28;20049;-83
2022/05/13 02:37:14;;;;;;;8.65;3.00;;;11.50;99.90;;;;;;5029724;28;20034;-83
2022/05/13 02:39:39;;;;;;;6.90;3.28;;;11.40;99.90;;;;;;5011311;28;20093;-84
2022/05/13 02:42:06;;;;;;;8.85;3.25;;;11.40;99.90;;;;;;4979219;28;20561;-83
2022/05/13 02:44:31;;;;;;;7.00;3.15;;;11.40;99.90;;;;;;5015304;28;20133;-83
2022/05/13 02:46:57;;;;;;;10.70;3.42;;;11.40;99.90;;;;;;4990344;28;20125;-83
2022/05/13 02:49:23;;;;;;;9.85;3.13;;;11.40;99.90;;;;;;5012332;28;20545;-84
2022/05/13 02:51:49;;;;;;;14.88;3.92;;;11.40;99.90;;;;;;4992311;28;20046;-83
2022/05/13 02:54:17;;;;;;;8.75;3.15;;;11.30;99.90;;;;;;4995664;28;20053;-84
2022/05/13 02:56:43;;;;;;;13.85;3.55;;;11.30;99.90;;;;;;5030271;28;20041;-84
2022/05/13 02:59:09;;;;;;;10.75;3.50;;;11.30;99.90;;;;;;4977941;28;20104;-83
2022/05/13 03:01:35;;;;;;;9.38;3.33;;;11.30;99.90;;;;;;4993272;28;20045;-85
2022/05/13 03:04:00;;;;;;;6.07;3.20;;;11.40;99.90;;;;;;5029088;28;20506;-85
2022/05/13 03:06:27;;;;;;;10.30;3.47;;;11.30;99.90;;;;;;5012258;28;20490;-84
2022/05/13 03:08:53;;;;;;;15.18;4.05;;;11.30;99.90;;;;;;5027869;28;20064;-85
2022/05/13 03:11:25;;;;;;;7.82;3.25;;;11.30;99.90;;;;;;5029220;28;20399;-87
2022/05/13 03:13:52;;;;;;;9.32;3.30;;;11.40;99.90;;;;;;5012150;28;20096;-85
2022/05/13 03:16:23;;;;;;;13.35;4.03;;;11.30;99.90;;;;;;5013266;28;20128;-84
2022/05/13 03:18:55;;;;;;;11.23;4.28;;;11.30;99.90;;;;;;5013519;28;20045;-84
2022/05/13 03:21:22;;;;;;;10.32;3.75;;;11.30;99.90;;;;;;5010736;28;20102;-85
2022/05/13 03:23:48;;;;;;;12.57;3.88;;;11.30;99.90;;;;;;5013291;28;20041;-84
2022/05/13 03:26:18;;;;;;;11.95;3.67;;;11.30;99.90;;;;;;4996241;28;20133;-84
2022/05/13 03:28:45;;;;;;;10.70;3.40;;;11.30;99.90;;;;;;5024902;28;20111;-84
2022/05/13 03:31:11;;;;;;;10.13;4.10;;;11.30;99.90;;;;;;5029666;28;20675;-84
2022/05/13 03:33:38;;;;;;;17.52;3.63;;;11.30;99.90;;;;;;5026817;28;20405;-85
2022/05/13 03:36:05;;;;;;;11.48;3.97;;;11.30;99.90;;;;;;5009383;28;20494;-84
2022/05/13 03:38:33;;;;;;;9.73;3.70;;;11.30;99.90;;;;;;5011784;28;20506;-86
2022/05/13 03:40:59;;;;;;;12.75;3.88;;;11.30;99.90;;;;;;5012103;28;20053;-84
2022/05/13 03:43:24;;;;;;;8.90;3.30;;;11.30;99.90;;;;;;5045394;28;20045;-84
2022/05/13 03:45:50;;;;;;;13.02;3.85;;;11.40;99.90;;;;;;4995716;28;20128;-84
2022/05/13 03:48:16;;;;;;;18.38;4.30;;;11.30;99.90;;;;;;5030217;28;20057;-84
2022/05/13 03:50:44;;;;;;;12.43;3.50;;;11.40;99.90;;;;;;5009572;28;20757;-84
2022/05/13 03:53:10;;;;;;;10.32;3.95;;;11.40;99.90;;;;;;5012008;28;20525;-84
2022/05/13 03:55:36;;;;;;;11.55;3.78;;;11.40;99.90;;;;;;5013133;28;20038;-85
2022/05/13 03:58:03;;;;;;;10.98;3.72;;;11.30;99.90;;;;;;4994299;28;20049;-85
2022/05/13 04:00:30;;;;;;;15.02;4.25;;;11.30;99.90;;;;;;5018546;28;20119;-85
2022/05/13 04:02:57;;;;;;;9.30;3.50;;;11.30;99.90;;;;;;4993631;28;20128;-85
2022/05/13 04:11:08;;;;;;;11.05;3.80;;;11.30;99.90;;;;;;5013400;28;20065;-84
2022/05/13 04:16:18;;;;;;;9.48;4.20;;;11.40;99.90;;;;;;5014825;28;20045;-83
2022/05/13 04:18:47;;;;;;;11.07;3.63;;;11.40;99.90;;;;;;4995705;28;20049;-83
2022/05/13 04:21:24;;;;;;;10.10;3.47;;;11.40;99.90;;;;;;5027150;28;20045;-84
2022/05/13 04:23:53;;;;;;;14.25;3.90;;;11.40;99.90;;;;;;5028001;28;20192;-83
2022/05/13 04:26:19;;;;;;;10.13;3.47;;;11.30;99.90;;;;;;5028579;28;20041;-85
2022/05/13 04:28:49;;;;;;;14.20;4.30;;;11.40;99.90;;;;;;5011105;28;20076;-84
2022/05/13 04:31:18;;;;;;;16.70;3.60;;;11.30;99.90;;;;;;5029620;28;20486;-84
2022/05/13 04:33:44;;;;;;;11.25;3.92;;;11.30;99.90;;;;;;5009250;28;20072;-84
2022/05/13 04:36:10;;;;;;;8.80;3.60;;;11.30;99.90;;;;;;4994886;28;20041;-83
2022/05/13 04:38:36;;;;;;;14.40;4.03;;;11.30;99.90;;;;;;5013559;28;20147;-84
2022/05/13 04:43:48;;;;;;;9.45;3.47;;;11.30;99.90;;;;;;5023512;28;20786;-85
2022/05/13 04:46:14;;;;;;;12.75;4.10;;;11.30;99.90;;;;;;5060338;28;20399;-84
2022/05/13 04:48:41;;;;;;;12.30;3.70;;;11.30;99.90;;;;;;5029236;28;20041;-84
2022/05/13 04:51:07;;;;;;;10.35;3.67;;;11.30;99.90;;;;;;5029201;28;20075;-83
2022/05/13 04:53:35;;;;;;;10.98;3.72;;;11.30;99.90;;;;;;5011951;28;20453;-84
2022/05/13 04:56:06;;;;;;;16.00;3.70;;;11.40;99.90;;;;;;5006407;28;20060;-85
2022/05/13 04:58:32;;;;;;;11.73;3.75;;;11.40;99.90;;;;;;5026995;28;20111;-86
2022/05/13 05:00:59;;;;;;;14.15;4.13;;;11.40;99.90;;;;;;4995580;28;20041;-84
2022/05/13 05:03:29;;;;;;;14.55;3.53;;;11.40;99.90;;;;;;5025458;28;20049;-85
2022/05/13 05:05:57;;;;;;;11.88;4.00;;;11.40;99.90;;;;;;5011888;28;20507;-84
2022/05/13 05:08:27;;;;;;;14.90;3.88;;;11.40;99.90;;;;;;5013333;28;20056;-83
2022/05/13 05:10:52;;;;;;;12.25;3.60;;;11.50;99.90;;;;;;5012454;28;20106;-83
2022/05/13 05:13:22;;;;;;;14.43;3.97;;;11.70;99.90;;;;;;4996375;28;20041;-83
2022/05/13 05:15:48;;;;;;;12.55;3.65;;;11.50;99.90;;;;;;5062161;28;20049;-84
2022/05/13 05:18:14;;;;;;;13.07;3.70;;;11.70;99.90;;;;;;5045765;28;20041;-84
2022/05/13 05:20:41;;;;;;;15.50;3.60;;;11.70;99.90;;;;;;5060969;28;20045;-84
2022/05/13 05:23:11;;;;;;;9.35;3.63;;;11.80;99.90;;;;;;4980281;28;20056;-84
2022/05/13 05:25:37;;;;;;;15.88;4.50;;;11.90;99.90;;;;;;5026452;28;20045;-83
2022/05/13 05:28:03;;;;;;;14.32;3.63;;;12.00;99.90;;;;;;4995006;28;20536;-82
2022/05/13 05:30:28;;;;;;;17.40;3.85;;;12.10;99.90;;;;;;5026407;28;20696;-84
2022/05/13 05:32:54;;;;;;;11.13;3.40;;;12.20;99.90;;;;;;5008329;28;20128;-82
2022/05/13 05:35:22;;;;;;;13.63;3.58;;;12.30;99.90;;;;;;5012022;28;20081;-83
2022/05/13 05:37:51;;;;;;;13.98;4.43;;;12.30;99.90;;;;;;5044946;28;20379;-82
2022/05/13 05:40:17;;;;;;;14.43;3.55;;;12.30;99.90;;;;;;5012182;28;20602;-83
2022/05/13 05:42:43;;;;;;;16.30;4.35;;;12.30;99.90;;;;;;5028486;28;20483;-82
2022/05/13 05:45:12;;;;;;;15.13;3.90;;;12.40;99.90;;;;;;5011974;28;20045;-82
2022/05/13 05:47:37;;;;;;;15.45;4.38;;;12.40;99.90;;;;;;5012224;28;20053;-83
2022/05/13 05:50:10;;;;;;;14.05;3.60;;;12.50;99.90;;;;;;5027512;28;20517;-83
2022/05/13 05:52:36;;;;;;;15.60;3.75;;;12.60;99.90;;;;;;5058687;28;20041;-83
2022/05/13 05:57:59;;;;;;;9.00;3.00;;;12.90;99.90;;;;;;5035761;28;20445;-84
2022/05/13 06:00:26;;;;;;;16.73;3.50;;;13.20;99.90;;;;;;5009394;28;20045;-84
2022/05/13 06:02:53;;;;;;;14.55;3.70;;;13.30;99.90;;;;;;5007041;28;20080;-84
2022/05/13 06:05:18;;;;;;;12.73;3.53;;;13.50;99.90;;;;;;4997361;28;20132;-83
2022/05/13 06:07:46;;;;;;;13.70;3.88;;;13.60;99.90;;;;;;5026860;28;20179;-82
2022/05/13 06:10:13;;;;;;;16.73;3.75;;;13.70;99.90;;;;;;5045862;28;20049;-83
2022/05/13 06:12:40;;;;;;;12.35;3.35;;;13.80;99.90;;;;;;4995584;28;20192;-83
2022/05/13 06:15:08;;;;;;;11.05;3.05;;;13.90;99.90;;;;;;4996554;28;20557;-84
2022/05/13 06:17:34;;;;;;;9.73;3.20;;;14.00;99.90;;;;;;5013771;28;20045;-83
2022/05/13 06:20:05;;;;;;;9.57;3.25;;;14.10;99.90;;;;;;5030068;28;20172;-83
2022/05/13 06:22:30;;;;;;;11.43;2.95;;;14.20;99.90;;;;;;5045681;28;20080;-83
2022/05/13 06:24:56;;;;;;;12.93;3.10;;;14.30;99.90;;;;;;5014909;28;20162;-83
2022/05/13 06:27:22;;;;;;;14.70;3.03;;;14.30;99.90;;;;;;5029909;28;20482;-82
2022/05/13 06:29:47;;;;;;;9.15;2.60;;;14.10;99.90;;;;;;5029839;28;20109;-81
2022/05/13 06:32:13;;;;;;;10.93;3.13;;;14.10;99.90;;;;;;5029925;28;20045;-82
2022/05/13 06:34:39;;;;;;;12.45;3.17;;;14.20;99.90;;;;;;5045487;28;20135;-87
2022/05/13 06:37:05;;;;;;;10.48;2.83;;;14.20;99.90;;;;;;5013935;28;20052;-82
2022/05/13 06:39:30;;;;;;;13.98;3.53;;;14.30;99.90;;;;;;5031482;28;20131;-84
2022/05/13 06:41:56;;;;;;;15.13;3.53;;;14.30;99.90;;;;;;5029136;28;20158;-83
2022/05/13 06:44:22;;;;;;;10.50;2.88;;;14.40;99.90;;;;;;5012192;28;20049;-83
2022/05/13 06:46:47;;;;;;;8.75;2.40;;;14.60;99.90;;;;;;5028822;28;20549;-82
2022/05/13 06:49:14;;;;;;;11.02;2.40;;;14.60;99.90;;;;;;5014428;28;20084;-82
2022/05/13 06:51:41;;;;;;;12.27;2.33;;;14.70;99.90;;;;;;5046727;28;20203;-85
2022/05/13 06:54:11;;;;;;;9.68;2.30;;;14.70;99.90;;;;;;5005401;28;20136;-82
2022/05/13 06:56:40;;;;;;;6.38;2.08;;;14.80;99.90;;;;;;5024683;28;20044;-82
2022/05/13 06:59:07;;;;;;;8.90;2.50;;;14.90;99.90;;;;;;5063342;28;20045;-82
2022/05/13 07:01:33;;;;;;;8.02;2.30;;;14.90;99.90;;;;;;5012045;28;20049;-84
2022/05/13 07:03:58;;;;;;;6.63;2.08;;;15.00;99.90;;;;;;5018828;28;20041;-82
2022/05/13 07:06:24;;;;;;;5.30;1.30;;;15.10;99.90;;;;;;4981461;28;20129;-81
2022/05/13 07:08:50;;;;;;;7.03;1.60;;;15.30;99.90;;;;;;5040115;28;20049;-83
2022/05/13 07:11:17;;;;;;;4.00;2.08;;;15.20;99.90;;;;;;5021187;28;20413;-83
2022/05/13 07:13:43;;;;;;;10.82;2.15;;;15.20;97.70;;;;;;5010191;28;20128;-84
2022/05/13 07:16:09;;;;;;;7.28;2.05;;;15.10;98.80;;;;;;5003786;28;20124;-83
2022/05/13 07:18:36;;;;;;;6.82;1.50;;;15.00;98.70;;;;;;5005830;28;20121;-83
2022/05/13 07:21:03;;;;;;;9.98;1.77;;;14.90;99.30;;;;;;5001947;28;20100;-83
2022/05/13 07:23:32;;;;;;;4.63;1.55;;;15.00;99.20;;;;;;5019069;28;20041;-83
2022/05/13 07:25:59;;;;;;;7.97;1.83;;;15.10;99.50;;;;;;5029968;28;20099;-82
2022/05/13 07:28:26;;;;;;;6.40;2.15;;;15.30;98.60;;;;;;5008904;28;20045;-82
2022/05/13 07:30:53;;;;;;;8.77;2.03;;;15.50;98.60;;;;;;5023475;28;20052;-84
2022/05/13 07:33:19;;;;;;;11.77;2.00;;;15.50;97.10;;;;;;4999184;28;20060;-85
2022/05/13 07:35:45;;;;;;;5.72;1.90;;;15.50;96.50;;;;;;4984078;28;20052;-85
2022/05/13 07:38:11;;;;;;;6.88;1.73;;;15.30;96.80;;;;;;4977779;28;20133;-84
2022/05/13 07:43:21;;;;;;;5.75;1.63;;;15.20;98.90;;;;;;5014789;28;20060;-84
2022/05/13 07:45:47;;;;;;;6.40;2.13;;;15.40;99.20;;;;;;4981601;28;20045;-83
2022/05/13 07:48:13;;;;;;;9.88;2.47;;;15.80;97.50;;;;;;5023364;28;20132;-83
2022/05/13 07:50:39;;;;;;;10.05;1.60;;;16.10;95.90;;;;;;5029422;28;20141;-84
2022/05/13 07:53:05;;;;;;;6.25;1.58;;;16.00;93.30;;;;;;5006463;28;20537;-83
2022/05/13 07:55:31;;;;;;;6.18;1.63;;;15.90;92.60;;;;;;5011520;28;20057;-83
2022/05/13 07:57:57;;;;;;;9.43;1.70;;;16.00;92.80;;;;;;5012135;28;20045;-82
2022/05/13 08:00:25;;;;;;;4.97;1.83;;;16.30;93.20;;;;;;5011877;28;20045;-83
2022/05/13 08:02:54;;;;;;;7.47;1.60;;;16.70;90.70;;;;;;5007106;28;20064;-83
2022/05/13 08:05:20;;;;;;;7.03;1.38;;;16.80;86.50;;;;;;5019744;28;20517;-83
2022/05/13 08:07:46;;;;;;;5.20;1.35;;;16.90;85.30;;;;;;5011894;28;20072;-84
2022/05/13 08:10:13;;;;;;;8.25;1.60;;;16.90;85.40;;;;;;4996959;28;20486;-82
2022/05/13 08:12:43;;;;;;;4.05;1.50;;;16.70;84.00;;;;;;5009059;28;20073;-82
2022/05/13 08:15:09;;;;;;;5.20;1.27;;;16.70;84.60;;;;;;4999991;28;20204;-81
2022/05/13 08:17:35;;;;;;;3.45;1.33;;;16.60;83.10;;;;;;4981424;28;20073;-83
2022/05/13 08:20:01;;;;;;;6.05;1.55;;;16.40;83.30;;;;;;5001786;28;20049;-83
2022/05/13 08:22:27;;;;;;;6.15;1.55;;;16.20;83.60;;;;;;5018868;28;20041;-81
2022/05/13 08:24:52;;;;;;;5.13;1.40;;;16.00;85.10;;;;;;5008562;28;20076;-82
2022/05/13 08:27:18;;;;;;;6.80;1.35;;;16.00;85.70;;;;;;5029208;28;20053;-81
2022/05/13 08:29:44;;;;;;;6.40;1.30;;;16.10;86.20;;;;;;5029655;28;20041;-82
2022/05/13 08:32:09;;;;;;;5.85;1.15;;;16.00;84.60;;;;;;5035335;28;20056;-82
2022/05/13 08:34:35;;;;;;;5.57;1.45;;;16.00;84.40;;;;;;5033899;28;20144;-82
2022/05/13 08:37:01;;;;;;;10.73;1.70;;;15.90;84.10;;;;;;5012365;28;20422;-82
2022/05/13 08:39:27;;;;;;;8.35;1.50;;;15.90;84.60;;;;;;5044913;28;20053;-82
2022/05/13 08:42:05;;;;;;;6.35;1.58;;;15.80;84.80;;;;;;5028544;28;20114;-82
2022/05/13 08:44:31;;;;;;;6.70;1.90;;;15.60;86.30;;;;;;5029572;28;20083;-82
2022/05/13 08:47:16;;;;;;;7.05;1.58;;;15.50;88.50;;;;;;5028570;28;20179;-83
2022/05/13 08:49:51;;;;;;;7.53;1.50;;;15.50;89.90;;;;;;5012791;28;20045;-83
2022/05/13 08:55:07;;;;;;;5.13;1.40;;;15.80;89.80;;;;;;5050313;28;20053;-82
2022/05/13 08:57:40;;;;;;;5.13;1.48;;;16.30;88.10;;;;;;5012410;28;20053;-83
2022/05/13 09:00:10;;;;;;;4.30;1.13;;;17.20;78.80;;;;;;5012185;28;20491;-83
2022/05/13 09:02:43;;;;;;;5.85;1.40;;;17.20;76.70;;;;;;5012014;28;20045;-84
2022/05/13 09:05:53;;;;;;;4.88;1.20;;;17.00;76.80;;;;;;5012442;28;20132;-82
2022/05/13 09:08:20;;;;;;;5.40;1.67;;;16.80;77.60;;;;;;4988268;28;20050;-83
2022/05/13 09:11:25;;;;;;;6.65;1.55;;;16.80;80.20;;;;;;4988339;28;20061;-82
2022/05/13 09:14:08;;;;;;;7.63;1.52;;;17.40;80.30;;;;;;4994704;28;20148;-85
2022/05/13 09:17:08;;;;;;;7.28;1.73;;;17.80;72.40;;;;;;5045073;28;20080;-83
2022/05/13 09:19:45;;;;;;;3.90;1.20;;;17.40;71.60;;;;;;5012422;28;20057;-83
2022/05/13 09:22:12;;;;;;;6.78;1.83;;;17.00;72.60;;;;;;5028362;28;20081;-83
2022/05/13 09:24:39;;;;;;;2.85;1.20;;;17.60;73.50;;;;;;5012589;28;20057;-81
2022/05/13 09:27:05;;;;;;;4.10;1.08;;;18.20;68.60;;;;;;4995691;28;20136;-81
2022/05/13 09:29:43;;;;;;;4.70;1.20;;;17.90;66.20;;;;;;4995812;28;20145;-81
2022/05/13 09:32:24;;;;;;;4.47;1.05;;;17.60;65.70;;;;;;5028349;28;20057;-82
2022/05/13 09:35:19;;;;;;;6.05;1.52;;;17.30;67.40;;;;;;5012640;28;20379;-81
2022/05/13 09:37:46;;;;;;;2.67;1.17;;;17.10;68.00;;;;;;5011801;28;20057;-80
2022/05/13 09:40:17;;;;;;;5.35;1.60;;;17.00;70.10;;;;;;5031904;28;20057;-81
2022/05/13 09:42:49;;;;;;;6.82;1.50;;;16.90;70.60;;;;;;5032461;28;20421;-81
2022/05/13 09:45:30;;;;;;;4.82;1.13;;;16.80;71.30;;;;;;5015798;28;20045;-81
2022/05/13 09:48:18;;;;;;;4.60;1.40;;;16.50;73.50;;;;;;5031728;28;20399;-82
2022/05/13 09:50:48;;;;;;;5.47;1.05;;;16.70;72.70;;;;;;5015738;28;20045;-81
2022/05/13 09:53:28;;;;;;;6.55;1.25;;;17.00;72.30;;;;;;5015415;28;20710;-83
2022/05/13 09:56:01;;;;;;;4.72;1.75;;;17.30;68.90;;;;;;5032139;28;20379;-85
2022/05/13 09:58:28;;;;;;;7.95;1.45;;;17.30;69.20;;;;;;5039384;28;20119;-81
2022/05/13 10:01:02;;;;;;;6.03;1.30;;;17.30;69.90;;;;;;5039627;28;20049;-85
2022/05/13 10:03:36;;;;;;;11.55;2.28;;;17.00;71.30;;;;;;5010042;28;20053;-82
2022/05/13 10:06:15;;;;;;;8.18;1.73;;;16.80;72.90;;;;;;5015275;28;20811;-81
2022/05/13 10:13:57;;;;;;;7.35;1.45;;;16.70;73.00;;;;;;5028918;28;20054;-82
2022/05/13 10:14:35;;;;;;;;;;;17.20;71.60;;;;;;5029833;28;20406;-82
2022/05/13 10:17:07;;;;;;;7.72;1.50;;;16.90;72.50;;;;;;5031563;28;19929;-82
2022/05/13 10:20:00;;;;;;;6.40;1.50;;;16.70;73.40;;;;;;5012703;28;20160;-82
2022/05/13 10:22:39;;;;;;;5.88;1.63;;;16.80;72.10;;;;;;5016434;28;20056;-83
2022/05/13 10:25:17;;;;;;;7.70;1.20;;;16.90;72.50;;;;;;5028732;28;20201;-81
2022/05/13 10:27:51;;;;;;;5.97;1.30;;;17.40;73.50;;;;;;5014510;28;20076;-82
2022/05/13 10:30:46;;;;;;;7.28;1.23;;;18.00;69.40;;;;;;5007556;28;20289;-82
2022/05/13 10:33:23;;;;;;;4.75;1.42;;;18.00;68.70;;;;;;5010327;28;20057;-82
2022/05/13 10:36:07;;;;;;;3.97;1.00;;;17.70;68.40;;;;;;5002642;28;20491;-81
2022/05/13 10:38:56;;;;;;;3.75;1.20;;;17.70;68.80;;;;;;5024002;28;20499;-83
2022/05/13 10:41:31;;;;;;;8.57;1.52;;;18.90;68.20;;;;;;4998694;28;20046;-82
2022/05/13 10:44:06;;;;;;;6.50;1.20;;;19.30;63.90;;;;;;5007267;28;20769;-84
2022/05/13 10:46:39;;;;;;;9.02;2.22;;;18.90;63.50;;;;;;5008286;28;20045;-82
2022/05/13 10:49:05;;;;;;;3.90;1.13;;;18.60;65.00;;;;;;5057457;28;20057;-82
2022/05/13 10:52:00;;;;;;;5.13;1.58;;;19.50;64.10;;;;;;5014354;28;20041;-82
2022/05/13 10:54:29;;;;;;;6.40;1.33;;;20.90;59.00;;;;;;5022151;28;20520;-83
2022/05/13 10:57:18;;;;;;;4.00;0.90;;;20.60;58.00;;;;;;5026718;28;20037;-82
2022/05/13 10:59:55;;;;;;;7.03;1.42;;;19.90;57.60;;;;;;4995378;28;20054;-81
2022/05/13 11:02:43;;;;;;;5.13;1.10;;;19.90;56.50;;;;;;5013854;28;20494;-81
2022/05/13 11:05:51;;;;;;;5.95;1.08;;;19.20;57.70;;;;;;5030889;28;20045;-80
2022/05/13 11:08:26;;;;;;;6.00;1.50;;;19.40;57.90;;;;;;5014928;28;20053;-80
2022/05/13 11:10:57;;;;;;;5.63;1.13;;;19.30;58.70;;;;;;5033411;28;20061;-82
2022/05/13 11:13:43;;;;;;;4.18;1.08;;;18.80;58.70;;;;;;5013781;28;20108;-82
2022/05/13 11:16:29;;;;;;;5.90;1.27;;;18.50;60.00;;;;;;5014081;28;20431;-80
2022/05/13 11:19:05;;;;;;;6.35;1.40;;;18.30;61.50;;;;;;5030666;28;20049;-80
2022/05/13 11:21:46;;;;;;;8.27;1.50;;;18.00;62.90;;;;;;5030728;28;20136;-80
2022/05/13 11:27:30;;;;;;;4.10;1.20;;;17.70;64.70;;;;;;5025859;28;20042;-82
2022/05/13 11:30:28;;;;;;;4.03;1.42;;;17.40;65.50;;;;;;4994605;28;20077;-81
2022/05/13 11:32:58;;;;;;;5.93;1.45;;;17.10;66.30;;;;;;5004171;28;20068;-81
2022/05/13 11:35:46;;;;;;;6.80;1.23;;;17.00;67.50;;;;;;5013660;28;20041;-82
2022/05/13 11:38:22;;;;;;;7.05;1.50;;;16.90;65.10;;;;;;5013466;28;20057;-80
2022/05/13 11:41:13;;;;;;;6.60;1.48;;;16.90;66.70;;;;;;5013474;28;20046;-82
2022/05/13 11:43:44;;;;;;;4.57;1.33;;;17.00;66.80;;;;;;5013912;28;20053;-81
2022/05/13 11:46:31;;;;;;;5.50;1.45;;;17.30;67.00;;;;;;5012625;28;20383;-81
2022/05/13 11:49:15;;;;;;;4.38;1.20;;;17.50;65.60;;;;;;5012800;28;20135;-81
2022/05/13 11:51:41;;;;;;;5.32;1.20;;;17.70;61.90;;;;;;5046446;28;20493;-81
2022/05/13 11:54:23;;;;;;;3.25;1.15;;;17.70;61.60;;;;;;5016463;28;20041;-81
2022/05/13 11:56:50;;;;;;;3.25;1.08;;;17.80;60.10;;;;;;5010329;28;20478;-81
2022/05/13 11:59:31;;;;;;;4.10;1.52;;;18.30;59.80;;;;;;4993537;28;20558;-82
2022/05/13 12:02:11;;;;;;;6.68;1.10;;;19.50;54.70;;;;;;5008947;28;20096;-82
2022/05/13 12:04:58;;;;;;;3.30;0.95;;;19.80;53.30;;;;;;5024504;28;20034;-81
2022/05/13 12:07:34;;;;;;;5.13;1.00;;;19.60;53.40;;;;;;5040482;28;20077;-81
2022/05/13 12:10:04;;;;;;;5.63;0.90;;;19.50;52.90;;;;;;5013272;28;20111;-79
2022/05/13 12:12:32;;;;;;;5.80;1.40;;;19.30;53.50;;;;;;5012793;28;20465;-81
2022/05/13 12:15:22;;;;;;;3.33;1.10;;;18.80;54.60;;;;;;5029701;28;20041;-81
2022/05/13 12:18:05;;;;;;;5.47;1.40;;;18.50;56.30;;;;;;5020267;28;20052;-81
2022/05/13 12:20:50;;;;;;;5.38;1.70;;;18.70;57.60;;;;;;5026486;28;20045;-80
2022/05/13 12:23:36;;;;;;;5.13;1.40;;;19.20;56.90;;;;;;5020495;28;20077;-80
2022/05/13 12:26:08;;;;;;;5.70;1.20;;;19.30;56.50;;;;;;5008777;28;20453;-80
2022/05/13 12:28:44;;;;;;;9.70;1.27;;;19.20;56.80;;;;;;5005304;28;20483;-80
2022/05/13 12:31:53;;;;;;;3.88;1.20;;;18.90;54.80;;;;;;5017777;28;20048;-81
2022/05/13 12:37:35;;;;;;;9.00;1.30;;;19.70;52.60;;;;;;5054257;28;20045;-79
2022/05/13 12:40:00;;;;;;;4.93;0.90;;;21.30;48.10;;;;;;5010996;28;20486;-81
2022/05/13 12:42:46;;;;;;;3.20;0.90;;;21.20;47.90;;;;;;5007860;28;20092;-79
2022/05/13 12:45:21;;;;;;;4.82;0.93;;;20.60;46.40;;;;;;4990103;28;20046;-80
2022/05/13 12:48:04;;;;;;;2.40;0.82;;;19.70;49.80;;;;;;5026963;28;20045;-81
2022/05/13 12:50:48;;;;;;;4.32;1.00;;;19.00;51.30;;;;;;5037162;28;20433;-79
2022/05/13 12:53:29;;;;;;;4.20;1.10;;;18.50;52.40;;;;;;5008439;28;20064;-79
2022/05/13 12:56:25;;;;;;;11.60;1.58;;;18.50;53.80;;;;;;5018723;28;20049;-80
2022/05/13 12:59:00;;;;;;;;;;;19.20;54.20;;;;;;5015981;28;20061;-80
2022/05/13 13:01:27;;;;;;;8.95;1.40;;;20.00;53.10;;;;;;5010037;28;19925;-80
2022/05/13 13:03:54;;;;;;;6.95;1.10;;;20.40;51.20;;;;;;5008600;28;20499;-79
2022/05/13 13:06:21;;;;;;;5.88;1.30;;;20.50;51.50;;;;;;5001633;28;20064;-80
2022/05/13 13:08:51;;;;;;;5.68;1.33;;;21.40;48.70;;;;;;5005426;28;20041;-79
2022/05/13 13:11:45;;;;;;;8.43;2.05;;;21.10;48.60;;;;;;5025904;28;20096;-79
2022/05/13 13:14:46;;;;;;;4.80;1.40;;;20.80;49.70;;;;;;5014169;28;20267;-83
2022/05/13 13:17:24;;;;;;;7.80;1.73;;;21.30;49.90;;;;;;5008789;28;20046;-81
2022/05/13 13:19:57;;;;;;;5.20;1.27;;;21.20;49.80;;;;;;5017966;28;20049;-81
2022/05/13 13:22:25;;;;;;;4.40;1.60;;;21.50;49.00;;;;;;5022900;28;20084;-81
2022/05/13 13:24:52;;;;;;;4.40;1.20;;;21.50;49.20;;;;;;5011926;28;20499;-81
2022/05/13 13:27:21;;;;;;;3.65;1.33;;;20.80;49.20;;;;;;5019314;28;20046;-80
2022/05/13 13:29:49;;;;;;;8.32;1.75;;;20.40;50.40;;;;;;5054687;28;20051;-80
2022/05/13 13:32:17;;;;;;;6.25;1.55;;;19.80;51.60;;;;;;5041986;28;20057;-81
2022/05/13 13:34:53;;;;;;;6.00;1.60;;;19.50;52.70;;;;;;5031444;28;20545;-80
2022/05/13 13:37:24;;;;;;;;;;;19.90;51.40;;;;;;5053669;28;20040;-82